createdAt,value
2018-09-15T00:01:41.581Z,18.36
2018-09-15T00:04:13.920Z,18.32
2018-09-15T00:06:46.249Z,18.32
2018-09-15T00:09:18.605Z,18.26
2018-09-15T00:11:50.965Z,18.23
2018-09-15T00:14:23.272Z,18.23
2018-09-15T00:16:55.579Z,18.32
2018-09-15T00:19:27.934Z,18.29
2018-09-15T00:22:00.277Z,18.31
2018-09-15T00:24:32.561Z,18.29
2018-09-15T00:27:04.901Z,18.27
2018-09-15T00:29:37.195Z,18.23
2018-09-15T00:32:09.482Z,18.18
2018-09-15T00:34:41.778Z,18.11
2018-09-15T00:37:14.070Z,18.09
2018-09-15T00:39:46.373Z,17.99
2018-09-15T00:42:18.666Z,17.96
2018-09-15T00:44:51.140Z,18.01
2018-09-15T00:47:23.410Z,17.97
2018-09-15T00:49:55.748Z,17.96
2018-09-15T00:52:28.019Z,17.92
2018-09-15T00:55:00.360Z,17.86
2018-09-15T00:57:32.645Z,17.81
2018-09-15T01:00:06.257Z,17.81
2018-09-15T01:02:38.520Z,17.78
2018-09-15T01:05:10.838Z,17.76
2018-09-15T01:07:43.209Z,17.78
2018-09-15T01:10:15.542Z,17.69
2018-09-15T01:12:47.828Z,17.65
2018-09-15T01:15:20.089Z,17.61
2018-09-15T01:17:52.368Z,17.60
2018-09-15T01:20:24.665Z,17.58
2018-09-15T01:22:56.943Z,17.53
2018-09-15T01:25:29.208Z,17.51
2018-09-15T01:28:01.473Z,17.49
2018-09-15T01:30:33.786Z,17.47
2018-09-15T01:33:06.473Z,17.45
2018-09-15T01:35:38.738Z,17.44
2018-09-15T01:38:11.013Z,17.47
2018-09-15T01:40:43.244Z,17.50
2018-09-15T01:43:15.500Z,17.43
2018-09-15T01:45:47.765Z,17.43
2018-09-15T01:48:20.041Z,17.41
2018-09-15T01:50:52.345Z,17.31
2018-09-15T01:53:24.591Z,17.25
2018-09-15T01:55:56.834Z,17.17
2018-09-15T01:58:29.102Z,17.08
2018-09-15T02:01:01.326Z,17.09
2018-09-15T02:03:33.609Z,17.03
2018-09-15T02:06:05.933Z,17.01
2018-09-15T02:08:38.235Z,16.99
2018-09-15T02:11:10.470Z,16.99
2018-09-15T02:13:42.768Z,17.00
2018-09-15T02:16:15.077Z,16.99
2018-09-15T02:18:47.336Z,17.00
2018-09-15T02:21:19.566Z,17.07
2018-09-15T02:23:51.836Z,17.08
2018-09-15T02:26:24.102Z,17.12
2018-09-15T02:28:56.431Z,17.14
2018-09-15T02:31:28.650Z,17.14
2018-09-15T02:34:00.897Z,17.16
2018-09-15T02:36:33.261Z,17.25
2018-09-15T02:39:06.701Z,17.27
2018-09-15T02:41:38.948Z,17.38
2018-09-15T02:44:11.210Z,17.35
2018-09-15T02:46:43.496Z,17.40
2018-09-15T02:49:15.713Z,17.41
2018-09-15T02:51:47.999Z,17.42
2018-09-15T02:54:20.257Z,17.38
2018-09-15T02:56:52.520Z,17.38
2018-09-15T02:59:24.846Z,17.36
2018-09-15T03:01:57.101Z,17.35
2018-09-15T03:04:29.376Z,17.36
2018-09-15T03:07:01.665Z,17.34
2018-09-15T03:09:33.897Z,17.38
2018-09-15T03:12:06.537Z,17.37
2018-09-15T03:14:38.768Z,17.33
2018-09-15T03:17:11.046Z,17.33
2018-09-15T03:19:43.353Z,17.36
2018-09-15T03:22:15.695Z,17.37
2018-09-15T03:24:47.951Z,17.32
2018-09-15T03:27:20.273Z,17.34
2018-09-15T03:29:52.536Z,17.30
2018-09-15T03:32:24.828Z,17.33
2018-09-15T03:34:57.088Z,17.37
2018-09-15T03:37:29.368Z,17.36
2018-09-15T03:40:01.684Z,17.34
2018-09-15T03:42:33.937Z,17.35
2018-09-15T03:45:06.226Z,17.34
2018-09-15T03:47:38.606Z,17.32
2018-09-15T03:50:10.861Z,17.32
2018-09-15T03:52:43.180Z,17.30
2018-09-15T03:55:15.428Z,17.27
2018-09-15T03:57:47.726Z,17.26
2018-09-15T04:00:19.992Z,17.28
2018-09-15T04:02:52.245Z,17.24
2018-09-15T04:05:24.544Z,17.20
2018-09-15T04:07:56.859Z,17.12
2018-09-15T04:10:29.125Z,17.07
2018-09-15T04:13:01.412Z,17.01
2018-09-15T04:15:33.641Z,16.93
2018-09-15T04:18:05.952Z,16.87
2018-09-15T04:20:38.181Z,16.82
2018-09-15T04:23:10.420Z,16.78
2018-09-15T04:25:43.139Z,16.77
2018-09-15T04:28:15.412Z,16.76
2018-09-15T04:30:47.660Z,16.75
2018-09-15T04:33:19.914Z,16.72
2018-09-15T04:35:52.213Z,16.75
2018-09-15T04:38:24.436Z,16.71
2018-09-15T04:40:56.684Z,16.73
2018-09-15T04:43:28.956Z,16.75
2018-09-15T04:46:01.220Z,16.69
2018-09-15T04:48:33.469Z,16.62
2018-09-15T04:51:05.792Z,16.60
2018-09-15T04:53:38.073Z,16.58
2018-09-15T04:56:10.354Z,16.59
2018-09-15T04:58:42.887Z,16.65
2018-09-15T05:01:15.086Z,16.69
2018-09-15T05:03:47.370Z,16.70
2018-09-15T05:06:19.752Z,16.75
2018-09-15T05:08:52.011Z,16.73
2018-09-15T05:11:24.304Z,16.69
2018-09-15T05:13:56.561Z,16.72
2018-09-15T05:16:28.815Z,16.71
2018-09-15T05:19:01.122Z,16.77
2018-09-15T05:21:33.405Z,16.77
2018-09-15T05:24:05.851Z,16.76
2018-09-15T05:26:38.089Z,16.75
2018-09-15T05:29:10.393Z,16.77
2018-09-15T05:31:42.781Z,16.76
2018-09-15T05:34:15.018Z,16.76
2018-09-15T05:36:47.257Z,16.79
2018-09-15T05:39:19.553Z,16.79
2018-09-15T05:41:51.856Z,16.84
2018-09-15T05:44:24.161Z,16.83
2018-09-15T05:46:56.444Z,16.89
2018-09-15T05:49:28.750Z,16.91
2018-09-15T05:52:01.028Z,16.93
2018-09-15T05:54:33.333Z,16.93
2018-09-15T05:57:05.625Z,16.97
2018-09-15T05:59:37.933Z,16.96
2018-09-15T06:02:10.164Z,17.00
2018-09-15T06:04:42.488Z,17.03
2018-09-15T06:07:14.793Z,17.06
2018-09-15T06:09:47.053Z,17.07
2018-09-15T06:12:19.351Z,17.10
2018-09-15T06:14:51.616Z,17.16
2018-09-15T06:17:23.922Z,17.30
2018-09-15T06:19:56.193Z,17.45
2018-09-15T06:22:28.554Z,17.63
2018-09-15T06:25:00.852Z,17.78
2018-09-15T06:27:33.186Z,17.95
2018-09-15T06:30:06.264Z,17.94
2018-09-15T06:32:38.598Z,18.01
2018-09-15T06:35:10.860Z,18.04
2018-09-15T06:37:43.297Z,18.04
2018-09-15T06:40:15.628Z,18.05
2018-09-15T06:42:47.903Z,18.06
2018-09-15T06:45:20.182Z,18.14
2018-09-15T06:47:52.457Z,18.29
2018-09-15T06:50:24.785Z,18.42
2018-09-15T06:52:57.118Z,18.45
2018-09-15T06:55:29.519Z,19.00
2018-09-15T06:58:01.766Z,20.00
2018-09-15T07:00:34.068Z,20.54
2018-09-15T07:03:06.385Z,21.11
2018-09-15T07:05:38.691Z,21.65
2018-09-15T07:08:11.038Z,21.87
2018-09-15T07:10:43.353Z,21.71
2018-09-15T07:13:15.646Z,21.72
2018-09-15T07:15:48.000Z,21.42
2018-09-15T07:18:20.299Z,21.21
2018-09-15T07:20:52.727Z,21.28
2018-09-15T07:23:25.754Z,21.24
2018-09-15T07:25:58.193Z,21.05
2018-09-15T07:28:30.457Z,21.25
2018-09-15T07:31:02.813Z,21.15
2018-09-15T07:33:35.064Z,21.01
2018-09-15T07:36:07.413Z,21.19
2018-09-15T07:38:39.748Z,21.02
2018-09-15T07:41:12.134Z,21.19
2018-09-15T07:43:44.424Z,21.28
2018-09-15T07:46:16.740Z,21.34
2018-09-15T07:48:49.025Z,21.52
2018-09-15T07:51:21.389Z,21.66
2018-09-15T07:53:53.746Z,21.85
2018-09-15T07:56:26.105Z,22.00
2018-09-15T07:58:58.388Z,21.98
2018-09-15T08:01:30.770Z,22.16
2018-09-15T08:04:03.081Z,22.12
2018-09-15T08:06:35.450Z,22.10
2018-09-15T08:09:08.000Z,22.13
2018-09-15T08:11:40.389Z,22.38
2018-09-15T08:14:12.654Z,22.52
2018-09-15T08:16:44.998Z,22.60
2018-09-15T08:19:17.296Z,22.60
2018-09-15T08:21:49.674Z,22.66
2018-09-15T08:24:21.957Z,22.91
2018-09-15T08:26:54.261Z,22.98
2018-09-15T08:29:26.566Z,22.86
2018-09-15T08:31:58.966Z,22.97
2018-09-15T08:34:31.304Z,22.89
2018-09-15T08:37:03.609Z,22.90
2018-09-15T08:39:36.021Z,23.04
2018-09-15T08:42:08.314Z,23.13
2018-09-15T08:44:40.856Z,23.02
2018-09-15T08:47:13.177Z,23.05
2018-09-15T08:49:45.505Z,23.03
2018-09-15T08:52:17.819Z,23.22
2018-09-15T08:54:50.137Z,23.42
2018-09-15T08:57:22.478Z,23.49
2018-09-15T08:59:54.844Z,23.50
2018-09-15T09:02:27.153Z,23.60
2018-09-15T09:04:59.565Z,23.55
2018-09-15T09:07:31.876Z,23.64
2018-09-15T09:10:04.280Z,23.55
2018-09-15T09:12:36.592Z,23.79
2018-09-15T09:15:09.018Z,23.95
2018-09-15T09:17:41.348Z,24.00
2018-09-15T09:20:13.735Z,24.00
2018-09-15T09:22:46.237Z,23.91
2018-09-15T09:25:18.606Z,24.01
2018-09-15T09:27:50.913Z,23.93
2018-09-15T09:30:23.377Z,23.80
2018-09-15T09:32:55.719Z,23.74
2018-09-15T09:35:28.091Z,23.79
2018-09-15T09:38:00.432Z,23.74
2018-09-15T09:40:32.845Z,23.70
2018-09-15T09:43:05.189Z,23.89
2018-09-15T09:45:37.595Z,23.91
2018-09-15T09:48:10.002Z,24.07
2018-09-15T09:50:42.588Z,24.11
2018-09-15T09:53:14.841Z,24.09
2018-09-15T09:55:47.253Z,24.10
2018-09-15T09:58:19.658Z,24.24
2018-09-15T10:00:57.804Z,24.30
2018-09-15T10:03:30.135Z,24.38
2018-09-15T10:06:02.497Z,24.51
2018-09-15T10:08:34.870Z,24.56
2018-09-15T10:11:07.178Z,24.39
2018-09-15T10:13:39.504Z,24.15
2018-09-15T10:16:11.901Z,24.02
2018-09-15T10:18:44.209Z,23.83
2018-09-15T10:21:16.616Z,23.60
2018-09-15T10:23:48.943Z,23.66
2018-09-15T10:26:21.269Z,23.67
2018-09-15T10:28:53.704Z,23.54
2018-09-15T10:31:26.001Z,23.47
2018-09-15T10:33:58.339Z,23.27
2018-09-15T10:36:30.696Z,23.28
2018-09-15T10:39:04.177Z,23.37
2018-09-15T10:41:36.513Z,23.49
2018-09-15T10:44:08.865Z,23.77
2018-09-15T10:46:41.189Z,23.82
2018-09-15T10:49:13.588Z,24.00
2018-09-15T10:51:45.972Z,24.03
2018-09-15T10:54:18.424Z,24.27
2018-09-15T10:56:50.772Z,24.28
2018-09-15T10:59:23.113Z,24.22
2018-09-15T11:01:55.420Z,24.26
2018-09-15T11:04:27.757Z,24.19
2018-09-15T11:07:00.099Z,24.11
2018-09-15T11:09:32.421Z,24.12
2018-09-15T11:12:04.721Z,24.21
2018-09-15T11:14:37.071Z,24.25
2018-09-15T11:17:09.423Z,24.15
2018-09-15T11:19:41.777Z,24.20
2018-09-15T11:22:14.126Z,23.99
2018-09-15T11:24:46.497Z,23.99
2018-09-15T11:27:18.872Z,23.99
2018-09-15T11:29:51.253Z,24.08
2018-09-15T11:32:23.721Z,24.00
2018-09-15T11:34:56.041Z,23.88
2018-09-15T11:37:28.410Z,23.91
2018-09-15T11:40:00.668Z,23.98
2018-09-15T11:42:33.027Z,24.04
2018-09-15T11:45:05.616Z,23.99
2018-09-15T11:47:38.010Z,24.08
2018-09-15T11:50:10.320Z,24.19
2018-09-15T11:52:42.668Z,24.33
2018-09-15T11:55:15.028Z,24.21
2018-09-15T11:57:47.406Z,24.22
2018-09-15T12:00:23.085Z,24.13
2018-09-15T12:02:55.467Z,24.10
2018-09-15T12:05:27.804Z,23.91
2018-09-15T12:08:00.135Z,23.72
2018-09-15T12:10:32.441Z,23.56
2018-09-15T12:13:04.779Z,23.52
2018-09-15T12:15:37.121Z,23.62
2018-09-15T12:18:09.453Z,23.64
2018-09-15T12:20:42.197Z,23.53
2018-09-15T12:23:14.526Z,23.67
2018-09-15T12:25:46.821Z,23.52
2018-09-15T12:28:19.191Z,23.44
2018-09-15T12:30:51.588Z,23.43
2018-09-15T12:33:24.059Z,23.42
2018-09-15T12:35:56.330Z,23.38
2018-09-15T12:38:28.718Z,23.52
2018-09-15T12:41:01.039Z,23.47
2018-09-15T12:43:33.363Z,23.42
2018-09-15T12:46:05.740Z,23.31
2018-09-15T12:48:38.033Z,23.36
2018-09-15T12:51:10.622Z,23.50
2018-09-15T12:53:43.038Z,23.35
2018-09-15T12:56:15.356Z,23.41
2018-09-15T12:58:47.713Z,23.33
2018-09-15T13:01:20.065Z,23.45
2018-09-15T13:03:52.451Z,23.32
2018-09-15T13:06:24.816Z,23.43
2018-09-15T13:08:57.234Z,23.49
2018-09-15T13:11:30.439Z,23.54
2018-09-15T13:14:02.807Z,23.57
2018-09-15T13:16:35.157Z,23.61
2018-09-15T13:19:13.254Z,23.68
2018-09-15T13:21:45.585Z,23.55
2018-09-15T13:24:17.894Z,23.52
2018-09-15T13:26:50.219Z,23.57
2018-09-15T13:29:22.592Z,23.48
2018-09-15T13:31:54.876Z,23.43
2018-09-15T13:34:27.328Z,23.36
2018-09-15T13:36:59.597Z,23.29
2018-09-15T13:39:31.884Z,23.22
2018-09-15T13:42:11.063Z,23.22
2018-09-15T13:44:43.357Z,23.06
2018-09-15T13:47:15.683Z,22.90
2018-09-15T13:49:47.961Z,22.85
2018-09-15T13:52:20.282Z,22.77
2018-09-15T13:54:52.584Z,22.68
2018-09-15T13:57:24.893Z,22.69
2018-09-15T13:59:57.201Z,22.65
2018-09-15T14:02:29.656Z,22.69
2018-09-15T14:05:01.933Z,22.86
2018-09-15T14:07:34.233Z,22.70
2018-09-15T14:10:07.049Z,22.75
2018-09-15T14:12:39.647Z,22.76
2018-09-15T14:15:11.956Z,22.89
2018-09-15T14:17:44.272Z,22.83
2018-09-15T14:20:16.567Z,22.73
2018-09-15T14:22:48.871Z,22.68
2018-09-15T14:25:21.162Z,22.71
2018-09-15T14:27:53.530Z,22.69
2018-09-15T14:30:25.806Z,22.76
2018-09-15T14:32:58.104Z,22.68
2018-09-15T14:35:30.422Z,22.66
2018-09-15T14:38:02.729Z,22.84
2018-09-15T14:40:35.065Z,22.83
2018-09-15T14:43:07.597Z,22.90
2018-09-15T14:45:39.914Z,22.79
2018-09-15T14:48:12.185Z,22.76
2018-09-15T14:50:44.528Z,22.81
2018-09-15T14:53:16.820Z,22.77
2018-09-15T14:55:49.141Z,22.73
2018-09-15T14:58:21.426Z,22.59
2018-09-15T15:00:53.757Z,22.45
2018-09-15T15:03:26.176Z,22.46
2018-09-15T15:05:58.481Z,22.34
2018-09-15T15:08:30.805Z,22.37
2018-09-15T15:11:03.065Z,22.34
2018-09-15T15:13:35.356Z,22.33
2018-09-15T15:16:07.653Z,22.31
2018-09-15T15:18:39.978Z,22.27
2018-09-15T15:21:12.240Z,22.35
2018-09-15T15:23:44.572Z,22.37
2018-09-15T15:26:16.859Z,22.43
2018-09-15T15:28:49.162Z,22.28
2018-09-15T15:31:21.578Z,22.25
2018-09-15T15:33:53.883Z,22.32
2018-09-15T15:36:26.121Z,22.37
2018-09-15T15:38:58.717Z,22.28
2018-09-15T15:41:31.029Z,22.20
2018-09-15T15:44:03.432Z,22.17
2018-09-15T15:46:35.877Z,22.15
2018-09-15T15:49:08.265Z,22.19
2018-09-15T15:51:40.622Z,22.09
2018-09-15T15:54:13.011Z,22.10
2018-09-15T15:56:45.326Z,22.08
2018-09-15T15:59:18.028Z,22.12
2018-09-15T16:01:50.382Z,22.10
2018-09-15T16:04:22.751Z,22.01
2018-09-15T16:06:55.001Z,21.97
2018-09-15T16:09:27.291Z,21.97
2018-09-15T16:11:59.681Z,21.99
2018-09-15T16:14:31.994Z,21.97
2018-09-15T16:17:04.379Z,21.93
2018-09-15T16:19:36.729Z,21.89
2018-09-15T16:22:09.132Z,21.90
2018-09-15T16:24:41.520Z,21.91
2018-09-15T16:27:13.925Z,21.84
2018-09-15T16:29:46.256Z,21.71
2018-09-15T16:32:18.641Z,21.68
2018-09-15T16:34:50.945Z,21.59
2018-09-15T16:37:23.252Z,21.54
2018-09-15T16:39:55.515Z,21.51
2018-09-15T16:42:27.791Z,21.49
2018-09-15T16:45:00.136Z,21.43
2018-09-15T16:47:32.770Z,21.38
2018-09-15T16:50:05.099Z,21.33
2018-09-15T16:52:37.347Z,21.29
2018-09-15T16:55:09.703Z,21.23
2018-09-15T16:57:42.013Z,21.14
2018-09-15T17:00:14.329Z,21.04
2018-09-15T17:02:46.657Z,21.00
2018-09-15T17:05:18.966Z,20.92
2018-09-15T17:07:51.336Z,20.85
2018-09-15T17:10:23.668Z,20.79
2018-09-15T17:12:55.978Z,20.66
2018-09-15T17:15:28.352Z,20.59
2018-09-15T17:18:00.631Z,20.49
2018-09-15T17:20:32.980Z,20.42
2018-09-15T17:23:05.381Z,20.35
2018-09-15T17:25:37.794Z,20.28
2018-09-15T17:28:10.121Z,20.22
2018-09-15T17:30:42.450Z,20.16
2018-09-15T17:33:14.700Z,20.08
2018-09-15T17:35:47.072Z,19.99
2018-09-15T17:38:19.356Z,19.87
2018-09-15T17:40:51.693Z,19.72
2018-09-15T17:43:23.992Z,19.68
2018-09-15T17:45:56.380Z,19.55
2018-09-15T17:48:28.763Z,19.43
2018-09-15T17:51:01.102Z,19.33
2018-09-15T17:53:33.362Z,19.27
2018-09-15T17:56:05.732Z,19.18
2018-09-15T17:58:38.059Z,19.10
2018-09-15T18:01:10.372Z,19.01
2018-09-15T18:03:42.632Z,18.93
2018-09-15T18:06:14.980Z,18.84
2018-09-15T18:08:47.278Z,18.76
2018-09-15T18:11:19.615Z,18.65
2018-09-15T18:13:51.977Z,18.59
2018-09-15T18:16:24.279Z,18.48
2018-09-15T18:18:56.665Z,18.39
2018-09-15T18:21:28.973Z,18.37
2018-09-15T18:24:01.330Z,18.34
2018-09-15T18:26:38.120Z,18.28
2018-09-15T18:29:10.436Z,18.20
2018-09-15T18:31:42.721Z,18.13
2018-09-15T18:34:15.057Z,18.05
2018-09-15T18:36:47.513Z,18.05
2018-09-15T18:39:19.713Z,17.95
2018-09-15T18:41:53.048Z,17.92
2018-09-15T18:44:25.384Z,17.78
2018-09-15T18:46:57.665Z,17.66
2018-09-15T18:49:30.026Z,17.64
2018-09-15T18:52:02.337Z,17.55
2018-09-15T18:54:34.741Z,17.31
2018-09-15T18:57:07.157Z,17.30
2018-09-15T18:59:39.595Z,17.32
2018-09-15T19:02:11.915Z,17.25
2018-09-15T19:04:44.314Z,17.18
2018-09-15T19:07:16.619Z,17.11
2018-09-15T19:09:48.937Z,17.07
2018-09-15T19:12:21.304Z,16.97
2018-09-15T19:14:53.782Z,16.86
2018-09-15T19:17:26.074Z,16.74
2018-09-15T19:19:58.493Z,16.74
2018-09-15T19:22:30.897Z,16.65
2018-09-15T19:25:03.368Z,16.60
2018-09-15T19:27:35.754Z,16.59
2018-09-15T19:30:08.097Z,16.46
2018-09-15T19:32:40.498Z,16.29
2018-09-15T19:35:12.845Z,16.18
2018-09-15T19:37:45.224Z,16.18
2018-09-15T19:40:17.590Z,16.13
2018-09-15T19:42:50.046Z,16.15
2018-09-15T19:45:22.453Z,16.15
2018-09-15T19:47:54.797Z,16.15
2018-09-15T19:50:27.229Z,16.11
2018-09-15T19:52:59.629Z,16.05
2018-09-15T19:55:31.970Z,16.04
2018-09-15T19:58:04.618Z,15.99
2018-09-15T20:00:37.041Z,15.86
2018-09-15T20:03:09.408Z,15.78
2018-09-15T20:05:41.768Z,15.64
2018-09-15T20:08:14.169Z,15.60
2018-09-15T20:10:46.537Z,15.66
2018-09-15T20:13:18.880Z,15.57
2018-09-15T20:15:50.113Z,15.47
2018-09-15T20:18:21.373Z,15.43
2018-09-15T20:20:52.581Z,15.42
2018-09-15T20:23:24.967Z,15.42
2018-09-15T20:25:57.300Z,15.32
2018-09-15T20:28:29.721Z,15.28
2018-09-15T20:31:02.190Z,15.30
2018-09-15T20:33:34.638Z,15.26
2018-09-15T20:36:07.080Z,15.14
2018-09-15T20:38:39.598Z,15.05
2018-09-15T20:41:12.029Z,14.98
2018-09-15T20:43:44.515Z,14.99
2018-09-15T20:46:16.911Z,15.00
2018-09-15T20:48:49.302Z,14.95
2018-09-15T20:51:21.717Z,14.97
2018-09-15T20:53:54.015Z,14.93
2018-09-15T20:56:26.358Z,14.92
2018-09-15T20:58:58.741Z,14.90
2018-09-15T21:01:31.097Z,14.86
2018-09-15T21:04:03.566Z,14.78
2018-09-15T21:06:35.924Z,14.65
2018-09-15T21:09:09.811Z,14.64
2018-09-15T21:11:42.191Z,14.66
2018-09-15T21:14:14.577Z,14.57
2018-09-15T21:16:46.993Z,14.50
2018-09-15T21:19:19.287Z,14.49
2018-09-15T21:21:51.748Z,14.46
2018-09-15T21:24:24.168Z,14.35
2018-09-15T21:26:56.521Z,14.38
2018-09-15T21:29:28.839Z,14.38
2018-09-15T21:32:01.208Z,14.30
2018-09-15T21:34:33.560Z,14.35
2018-09-15T21:37:06.471Z,14.32
2018-09-15T21:39:38.809Z,14.22
2018-09-15T21:42:11.181Z,14.18
2018-09-15T21:44:43.560Z,14.16
2018-09-15T21:47:15.911Z,14.15
2018-09-15T21:49:48.298Z,14.12
2018-09-15T21:52:20.659Z,14.08
2018-09-15T21:54:53.437Z,14.01
2018-09-15T21:57:25.806Z,14.02
2018-09-15T21:59:58.168Z,14.04
2018-09-15T22:02:31.753Z,14.01
2018-09-15T22:05:04.204Z,13.93
2018-09-15T22:07:36.748Z,13.94
2018-09-15T22:10:09.088Z,13.83
2018-09-15T22:12:41.487Z,13.83
2018-09-15T22:15:20.354Z,13.80
2018-09-15T22:17:53.608Z,13.83
2018-09-15T22:20:26.271Z,13.83
2018-09-15T22:22:58.653Z,13.74
2018-09-15T22:25:30.999Z,13.70
2018-09-15T22:28:03.380Z,13.60
2018-09-15T22:30:35.651Z,13.54
2018-09-15T22:33:08.005Z,13.56
2018-09-15T22:35:40.326Z,13.60
2018-09-15T22:38:12.650Z,13.51
2018-09-15T22:40:44.948Z,13.44
2018-09-15T22:43:17.230Z,13.48
2018-09-15T22:45:49.607Z,13.46
2018-09-15T22:48:21.923Z,13.40
2018-09-15T22:50:54.269Z,13.36
2018-09-15T22:53:26.602Z,13.32
2018-09-15T22:55:58.957Z,13.31
2018-09-15T22:58:31.296Z,13.27
2018-09-15T23:01:03.724Z,13.15
2018-09-15T23:03:36.058Z,13.11
2018-09-15T23:06:08.445Z,13.17
2018-09-15T23:08:40.782Z,13.14
2018-09-15T23:11:13.156Z,13.17
2018-09-15T23:13:45.457Z,13.09
2018-09-15T23:16:17.792Z,13.15
2018-09-15T23:18:50.136Z,13.09
2018-09-15T23:21:22.482Z,12.96
2018-09-15T23:23:54.957Z,12.97
2018-09-15T23:26:27.229Z,12.99
2018-09-15T23:28:59.553Z,12.98
2018-09-15T23:31:31.971Z,12.95
2018-09-15T23:34:04.372Z,12.99
2018-09-15T23:36:36.708Z,12.93
2018-09-15T23:39:09.064Z,12.96
2018-09-15T23:41:41.376Z,12.93
2018-09-15T23:44:13.736Z,12.96
2018-09-15T23:46:46.126Z,12.91
2018-09-15T23:49:18.581Z,12.88
2018-09-15T23:51:50.905Z,12.87
2018-09-15T23:54:23.306Z,12.81
2018-09-15T23:56:55.631Z,12.78
2018-09-15T23:59:28.097Z,12.66
